sensor_id;sensor_type;location;lat;lon;timestamp;P1;durP1;ratioP1;P2;durP2;ratioP2
17987;SDS011;9119;50.932;5.342;2022-10-17T00:01:43;16.30;;;10.40;;
17987;SDS011;9119;50.932;5.342;2022-10-17T00:04:08;16.23;;;10.83;;
17987;SDS011;9119;50.932;5.342;2022-10-17T00:06:34;19.97;;;11.83;;
17987;SDS011;9119;50.932;5.342;2022-10-17T00:08:59;16.73;;;11.23;;
17987;SDS011;9119;50.932;5.342;2022-10-17T00:11:25;16.87;;;11.23;;
17987;SDS011;9119;50.932;5.342;2022-10-17T00:13:52;18.17;;;10.83;;
17987;SDS011;9119;50.932;5.342;2022-10-17T00:16:27;21.70;;;11.47;;
17987;SDS011;9119;50.932;5.342;2022-10-17T00:18:54;18.90;;;10.90;;
17987;SDS011;9119;50.932;5.342;2022-10-17T00:21:20;17.27;;;10.93;;
17987;SDS011;9119;50.932;5.342;2022-10-17T00:23:46;19.57;;;11.77;;
17987;SDS011;9119;50.932;5.342;2022-10-17T00:26:12;15.93;;;10.37;;
17987;SDS011;9119;50.932;5.342;2022-10-17T00:28:38;17.80;;;11.17;;
17987;SDS011;9119;50.932;5.342;2022-10-17T00:31:05;15.67;;;10.87;;
17987;SDS011;9119;50.932;5.342;2022-10-17T00:33:32;18.17;;;11.33;;
17987;SDS011;9119;50.932;5.342;2022-10-17T00:36:10;18.57;;;11.43;;
17987;SDS011;9119;50.932;5.342;2022-10-17T00:38:37;21.80;;;11.43;;
17987;SDS011;9119;50.932;5.342;2022-10-17T00:41:04;15.53;;;10.33;;
17987;SDS011;9119;50.932;5.342;2022-10-17T00:43:47;18.37;;;10.53;;
17987;SDS011;9119;50.932;5.342;2022-10-17T00:46:19;17.37;;;11.03;;
17987;SDS011;9119;50.932;5.342;2022-10-17T00:48:47;20.10;;;10.77;;
17987;SDS011;9119;50.932;5.342;2022-10-17T00:51:18;16.10;;;10.63;;
17987;SDS011;9119;50.932;5.342;2022-10-17T00:53:47;16.30;;;9.93;;
17987;SDS011;9119;50.932;5.342;2022-10-17T00:56:15;21.17;;;10.53;;
17987;SDS011;9119;50.932;5.342;2022-10-17T00:58:42;16.80;;;9.97;;
17987;SDS011;9119;50.932;5.342;2022-10-17T01:01:08;17.43;;;9.87;;
17987;SDS011;9119;50.932;5.342;2022-10-17T01:03:34;15.23;;;9.50;;
17987;SDS011;9119;50.932;5.342;2022-10-17T01:05:59;17.80;;;9.87;;
17987;SDS011;9119;50.932;5.342;2022-10-17T01:08:25;15.57;;;9.80;;
17987;SDS011;9119;50.932;5.342;2022-10-17T01:11:41;14.63;;;9.13;;
17987;SDS011;9119;50.932;5.342;2022-10-17T01:14:13;17.00;;;8.97;;
17987;SDS011;9119;50.932;5.342;2022-10-17T01:17:06;20.37;;;9.40;;
17987;SDS011;9119;50.932;5.342;2022-10-17T01:19:50;14.37;;;8.20;;
17987;SDS011;9119;50.932;5.342;2022-10-17T01:22:51;12.07;;;8.20;;
17987;SDS011;9119;50.932;5.342;2022-10-17T01:31:22;16.13;;;8.67;;
17987;SDS011;9119;50.932;5.342;2022-10-17T01:34:01;12.40;;;7.37;;
17987;SDS011;9119;50.932;5.342;2022-10-17T01:36:39;14.63;;;8.23;;
17987;SDS011;9119;50.932;5.342;2022-10-17T01:39:12;18.83;;;8.17;;
17987;SDS011;9119;50.932;5.342;2022-10-17T01:41:46;19.67;;;8.07;;
17987;SDS011;9119;50.932;5.342;2022-10-17T01:44:35;20.07;;;7.60;;
17987;SDS011;9119;50.932;5.342;2022-10-17T01:47:07;13.90;;;8.20;;
17987;SDS011;9119;50.932;5.342;2022-10-17T01:49:36;12.60;;;7.80;;
17987;SDS011;9119;50.932;5.342;2022-10-17T01:52:09;14.37;;;8.27;;
17987;SDS011;9119;50.932;5.342;2022-10-17T01:54:47;17.30;;;8.03;;
17987;SDS011;9119;50.932;5.342;2022-10-17T01:57:27;13.27;;;7.30;;
17987;SDS011;9119;50.932;5.342;2022-10-17T02:00:05;17.07;;;7.80;;
17987;SDS011;9119;50.932;5.342;2022-10-17T02:02:35;19.00;;;7.57;;
17987;SDS011;9119;50.932;5.342;2022-10-17T02:05:01;15.13;;;8.10;;
17987;SDS011;9119;50.932;5.342;2022-10-17T02:07:28;11.47;;;6.83;;
17987;SDS011;9119;50.932;5.342;2022-10-17T02:09:54;15.63;;;6.77;;
17987;SDS011;9119;50.932;5.342;2022-10-17T02:15:48;17.40;;;7.80;;
17987;SDS011;9119;50.932;5.342;2022-10-17T02:20:30;12.93;;;6.67;;
17987;SDS011;9119;50.932;5.342;2022-10-17T02:30:52;12.77;;;6.47;;
17987;SDS011;9119;50.932;5.342;2022-10-17T02:33:24;10.57;;;6.17;;
17987;SDS011;9119;50.932;5.342;2022-10-17T02:35:57;11.50;;;6.67;;
17987;SDS011;9119;50.932;5.342;2022-10-17T02:38:28;12.93;;;7.00;;
17987;SDS011;9119;50.932;5.342;2022-10-17T02:40:56;11.83;;;6.37;;
17987;SDS011;9119;50.932;5.342;2022-10-17T02:43:22;12.30;;;7.20;;
17987;SDS011;9119;50.932;5.342;2022-10-17T02:45:48;8.47;;;5.90;;
17987;SDS011;9119;50.932;5.342;2022-10-17T02:48:24;12.33;;;6.37;;
17987;SDS011;9119;50.932;5.342;2022-10-17T02:54:00;12.00;;;6.13;;
17987;SDS011;9119;50.932;5.342;2022-10-17T02:56:58;11.83;;;6.40;;
17987;SDS011;9119;50.932;5.342;2022-10-17T02:59:28;15.83;;;6.73;;
17987;SDS011;9119;50.932;5.342;2022-10-17T03:01:55;11.37;;;6.17;;
17987;SDS011;9119;50.932;5.342;2022-10-17T03:04:21;16.57;;;6.20;;
17987;SDS011;9119;50.932;5.342;2022-10-17T03:06:47;17.73;;;6.63;;
17987;SDS011;9119;50.932;5.342;2022-10-17T03:09:14;9.90;;;6.13;;
17987;SDS011;9119;50.932;5.342;2022-10-17T03:11:40;10.53;;;6.30;;
17987;SDS011;9119;50.932;5.342;2022-10-17T03:14:06;11.07;;;5.60;;
17987;SDS011;9119;50.932;5.342;2022-10-17T03:16:31;14.77;;;6.50;;
17987;SDS011;9119;50.932;5.342;2022-10-17T03:19:00;12.60;;;6.17;;
17987;SDS011;9119;50.932;5.342;2022-10-17T03:21:26;14.00;;;6.10;;
17987;SDS011;9119;50.932;5.342;2022-10-17T03:23:51;13.57;;;6.53;;
17987;SDS011;9119;50.932;5.342;2022-10-17T03:26:17;9.83;;;6.43;;
17987;SDS011;9119;50.932;5.342;2022-10-17T03:28:42;10.43;;;5.77;;
17987;SDS011;9119;50.932;5.342;2022-10-17T03:31:09;11.10;;;6.40;;
17987;SDS011;9119;50.932;5.342;2022-10-17T03:33:36;17.73;;;6.50;;
17987;SDS011;9119;50.932;5.342;2022-10-17T03:36:06;11.63;;;6.10;;
17987;SDS011;9119;50.932;5.342;2022-10-17T03:38:33;14.43;;;5.73;;
17987;SDS011;9119;50.932;5.342;2022-10-17T03:40:58;9.57;;;6.00;;
17987;SDS011;9119;50.932;5.342;2022-10-17T03:43:24;9.90;;;5.97;;
17987;SDS011;9119;50.932;5.342;2022-10-17T03:45:50;11.07;;;5.93;;
17987;SDS011;9119;50.932;5.342;2022-10-17T03:48:15;9.37;;;5.70;;
17987;SDS011;9119;50.932;5.342;2022-10-17T03:50:41;11.53;;;6.10;;
17987;SDS011;9119;50.932;5.342;2022-10-17T03:53:06;8.03;;;5.33;;
17987;SDS011;9119;50.932;5.342;2022-10-17T03:55:32;11.73;;;6.27;;
17987;SDS011;9119;50.932;5.342;2022-10-17T03:58:00;13.97;;;5.70;;
17987;SDS011;9119;50.932;5.342;2022-10-17T04:00:26;12.67;;;6.20;;
17987;SDS011;9119;50.932;5.342;2022-10-17T04:02:51;8.73;;;5.53;;
17987;SDS011;9119;50.932;5.342;2022-10-17T04:05:21;12.27;;;6.00;;
17987;SDS011;9119;50.932;5.342;2022-10-17T04:07:46;11.03;;;6.20;;
17987;SDS011;9119;50.932;5.342;2022-10-17T04:10:12;11.03;;;5.80;;
17987;SDS011;9119;50.932;5.342;2022-10-17T04:12:43;9.30;;;6.33;;
17987;SDS011;9119;50.932;5.342;2022-10-17T04:15:08;11.60;;;5.83;;
17987;SDS011;9119;50.932;5.342;2022-10-17T04:17:34;8.23;;;5.27;;
17987;SDS011;9119;50.932;5.342;2022-10-17T04:20:00;9.80;;;5.70;;
17987;SDS011;9119;50.932;5.342;2022-10-17T04:22:25;11.17;;;6.07;;
17987;SDS011;9119;50.932;5.342;2022-10-17T04:24:54;10.73;;;5.37;;
17987;SDS011;9119;50.932;5.342;2022-10-17T04:27:20;9.03;;;5.60;;
17987;SDS011;9119;50.932;5.342;2022-10-17T04:29:45;8.10;;;5.50;;
17987;SDS011;9119;50.932;5.342;2022-10-17T04:32:11;12.87;;;6.07;;
17987;SDS011;9119;50.932;5.342;2022-10-17T04:34:36;13.13;;;5.90;;
17987;SDS011;9119;50.932;5.342;2022-10-17T04:37:02;8.43;;;5.40;;
17987;SDS011;9119;50.932;5.342;2022-10-17T04:39:28;12.37;;;5.13;;
17987;SDS011;9119;50.932;5.342;2022-10-17T04:41:54;9.60;;;5.23;;
17987;SDS011;9119;50.932;5.342;2022-10-17T04:44:20;13.50;;;5.30;;
17987;SDS011;9119;50.932;5.342;2022-10-17T04:46:46;12.20;;;5.87;;
17987;SDS011;9119;50.932;5.342;2022-10-17T04:49:12;15.20;;;5.80;;
17987;SDS011;9119;50.932;5.342;2022-10-17T04:51:37;10.53;;;5.87;;
17987;SDS011;9119;50.932;5.342;2022-10-17T04:54:03;7.73;;;5.47;;
17987;SDS011;9119;50.932;5.342;2022-10-17T04:56:29;11.97;;;5.90;;
17987;SDS011;9119;50.932;5.342;2022-10-17T04:58:55;8.47;;;5.47;;
17987;SDS011;9119;50.932;5.342;2022-10-17T05:01:23;10.77;;;5.77;;
17987;SDS011;9119;50.932;5.342;2022-10-17T05:03:49;9.70;;;5.80;;
17987;SDS011;9119;50.932;5.342;2022-10-17T05:06:17;11.00;;;5.87;;
17987;SDS011;9119;50.932;5.342;2022-10-17T05:08:44;7.40;;;5.30;;
17987;SDS011;9119;50.932;5.342;2022-10-17T05:11:28;11.37;;;5.07;;
17987;SDS011;9119;50.932;5.342;2022-10-17T05:13:55;9.70;;;5.83;;
17987;SDS011;9119;50.932;5.342;2022-10-17T05:16:22;9.23;;;5.40;;
17987;SDS011;9119;50.932;5.342;2022-10-17T05:18:48;9.83;;;5.83;;
17987;SDS011;9119;50.932;5.342;2022-10-17T05:21:15;9.93;;;5.47;;
17987;SDS011;9119;50.932;5.342;2022-10-17T05:23:41;16.13;;;4.97;;
17987;SDS011;9119;50.932;5.342;2022-10-17T05:26:07;11.50;;;5.40;;
17987;SDS011;9119;50.932;5.342;2022-10-17T05:28:33;9.67;;;5.13;;
17987;SDS011;9119;50.932;5.342;2022-10-17T05:31:02;10.90;;;5.53;;
17987;SDS011;9119;50.932;5.342;2022-10-17T05:33:29;8.70;;;4.73;;
17987;SDS011;9119;50.932;5.342;2022-10-17T05:35:54;9.63;;;4.97;;
17987;SDS011;9119;50.932;5.342;2022-10-17T05:38:20;13.77;;;5.20;;
17987;SDS011;9119;50.932;5.342;2022-10-17T05:40:45;9.33;;;5.23;;
17987;SDS011;9119;50.932;5.342;2022-10-17T05:43:11;13.83;;;5.40;;
17987;SDS011;9119;50.932;5.342;2022-10-17T05:45:36;10.13;;;4.87;;
17987;SDS011;9119;50.932;5.342;2022-10-17T05:48:02;8.77;;;4.60;;
17987;SDS011;9119;50.932;5.342;2022-10-17T05:50:28;13.97;;;5.20;;
17987;SDS011;9119;50.932;5.342;2022-10-17T05:52:54;13.97;;;4.73;;
17987;SDS011;9119;50.932;5.342;2022-10-17T05:55:19;10.60;;;5.00;;
17987;SDS011;9119;50.932;5.342;2022-10-17T05:57:45;13.77;;;5.37;;
17987;SDS011;9119;50.932;5.342;2022-10-17T06:00:11;8.97;;;4.93;;
17987;SDS011;9119;50.932;5.342;2022-10-17T06:02:37;9.70;;;5.70;;
17987;SDS011;9119;50.932;5.342;2022-10-17T06:05:03;12.53;;;5.20;;
17987;SDS011;9119;50.932;5.342;2022-10-17T06:07:29;7.67;;;4.33;;
17987;SDS011;9119;50.932;5.342;2022-10-17T06:09:54;8.27;;;4.73;;
17987;SDS011;9119;50.932;5.342;2022-10-17T06:12:22;9.77;;;5.17;;
17987;SDS011;9119;50.932;5.342;2022-10-17T06:14:47;11.33;;;4.63;;
17987;SDS011;9119;50.932;5.342;2022-10-17T06:17:13;10.97;;;4.87;;
17987;SDS011;9119;50.932;5.342;2022-10-17T06:19:38;9.03;;;4.33;;
17987;SDS011;9119;50.932;5.342;2022-10-17T06:22:05;14.40;;;5.03;;
17987;SDS011;9119;50.932;5.342;2022-10-17T06:24:31;7.53;;;4.30;;
17987;SDS011;9119;50.932;5.342;2022-10-17T06:26:56;14.67;;;4.70;;
17987;SDS011;9119;50.932;5.342;2022-10-17T06:29:22;13.73;;;4.30;;
17987;SDS011;9119;50.932;5.342;2022-10-17T06:31:47;16.03;;;4.93;;
17987;SDS011;9119;50.932;5.342;2022-10-17T06:34:13;8.83;;;4.47;;
17987;SDS011;9119;50.932;5.342;2022-10-17T06:36:39;7.93;;;4.40;;
17987;SDS011;9119;50.932;5.342;2022-10-17T06:39:04;8.10;;;4.77;;
17987;SDS011;9119;50.932;5.342;2022-10-17T06:41:30;10.93;;;4.80;;
17987;SDS011;9119;50.932;5.342;2022-10-17T06:43:55;10.17;;;4.63;;
17987;SDS011;9119;50.932;5.342;2022-10-17T06:46:21;16.33;;;4.47;;
17987;SDS011;9119;50.932;5.342;2022-10-17T06:48:50;10.37;;;4.97;;
17987;SDS011;9119;50.932;5.342;2022-10-17T06:51:16;12.77;;;4.33;;
17987;SDS011;9119;50.932;5.342;2022-10-17T06:53:44;11.57;;;4.50;;
17987;SDS011;9119;50.932;5.342;2022-10-17T06:56:11;12.13;;;4.70;;
17987;SDS011;9119;50.932;5.342;2022-10-17T06:58:37;14.27;;;4.80;;
17987;SDS011;9119;50.932;5.342;2022-10-17T07:01:04;9.80;;;4.37;;
17987;SDS011;9119;50.932;5.342;2022-10-17T07:03:35;9.90;;;4.37;;
17987;SDS011;9119;50.932;5.342;2022-10-17T07:06:02;8.30;;;4.57;;
17987;SDS011;9119;50.932;5.342;2022-10-17T07:08:28;9.70;;;4.63;;
17987;SDS011;9119;50.932;5.342;2022-10-17T07:10:54;8.67;;;4.37;;
17987;SDS011;9119;50.932;5.342;2022-10-17T07:13:20;12.37;;;4.70;;
17987;SDS011;9119;50.932;5.342;2022-10-17T07:15:46;9.23;;;4.60;;
17987;SDS011;9119;50.932;5.342;2022-10-17T07:18:16;12.07;;;4.60;;
17987;SDS011;9119;50.932;5.342;2022-10-17T07:20:41;11.43;;;4.53;;
17987;SDS011;9119;50.932;5.342;2022-10-17T07:23:07;11.27;;;4.80;;
17987;SDS011;9119;50.932;5.342;2022-10-17T07:25:32;11.23;;;4.00;;
17987;SDS011;9119;50.932;5.342;2022-10-17T07:27:59;15.23;;;5.00;;
17987;SDS011;9119;50.932;5.342;2022-10-17T07:30:26;22.70;;;4.90;;
17987;SDS011;9119;50.932;5.342;2022-10-17T07:32:52;23.30;;;5.70;;
17987;SDS011;9119;50.932;5.342;2022-10-17T07:35:18;23.13;;;4.97;;
17987;SDS011;9119;50.932;5.342;2022-10-17T07:37:45;22.87;;;4.73;;
17987;SDS011;9119;50.932;5.342;2022-10-17T07:40:11;19.30;;;5.03;;
17987;SDS011;9119;50.932;5.342;2022-10-17T07:42:36;13.93;;;4.87;;
17987;SDS011;9119;50.932;5.342;2022-10-17T07:45:05;19.17;;;5.50;;
17987;SDS011;9119;50.932;5.342;2022-10-17T07:47:31;20.37;;;6.37;;
17987;SDS011;9119;50.932;5.342;2022-10-17T07:49:59;24.27;;;5.50;;
17987;SDS011;9119;50.932;5.342;2022-10-17T07:52:26;14.10;;;4.93;;
17987;SDS011;9119;50.932;5.342;2022-10-17T07:54:51;18.23;;;5.17;;
17987;SDS011;9119;50.932;5.342;2022-10-17T07:57:20;20.53;;;4.40;;
17987;SDS011;9119;50.932;5.342;2022-10-17T07:59:46;5.07;;;3.97;;
17987;SDS011;9119;50.932;5.342;2022-10-17T08:02:22;15.57;;;4.30;;
17987;SDS011;9119;50.932;5.342;2022-10-17T08:04:50;17.93;;;5.00;;
17987;SDS011;9119;50.932;5.342;2022-10-17T08:07:16;11.23;;;4.23;;
17987;SDS011;9119;50.932;5.342;2022-10-17T08:09:43;16.07;;;4.40;;
17987;SDS011;9119;50.932;5.342;2022-10-17T08:12:09;14.63;;;4.57;;
17987;SDS011;9119;50.932;5.342;2022-10-17T08:14:35;19.00;;;7.93;;
17987;SDS011;9119;50.932;5.342;2022-10-17T08:17:01;10.97;;;4.03;;
17987;SDS011;9119;50.932;5.342;2022-10-17T08:19:27;11.53;;;4.20;;
17987;SDS011;9119;50.932;5.342;2022-10-17T08:21:52;16.97;;;4.90;;
17987;SDS011;9119;50.932;5.342;2022-10-17T08:24:18;13.63;;;4.63;;
17987;SDS011;9119;50.932;5.342;2022-10-17T08:26:44;19.60;;;5.30;;
17987;SDS011;9119;50.932;5.342;2022-10-17T08:29:13;15.43;;;4.83;;
17987;SDS011;9119;50.932;5.342;2022-10-17T08:31:40;15.80;;;4.93;;
17987;SDS011;9119;50.932;5.342;2022-10-17T08:34:05;11.10;;;4.20;;
17987;SDS011;9119;50.932;5.342;2022-10-17T08:36:31;13.23;;;4.70;;
17987;SDS011;9119;50.932;5.342;2022-10-17T08:38:57;10.20;;;3.60;;
17987;SDS011;9119;50.932;5.342;2022-10-17T08:44:01;7.40;;;4.53;;
17987;SDS011;9119;50.932;5.342;2022-10-17T08:46:39;12.67;;;5.23;;
17987;SDS011;9119;50.932;5.342;2022-10-17T08:49:19;15.70;;;5.60;;
17987;SDS011;9119;50.932;5.342;2022-10-17T08:51:50;12.83;;;5.00;;
17987;SDS011;9119;50.932;5.342;2022-10-17T08:54:26;16.17;;;4.63;;
17987;SDS011;9119;50.932;5.342;2022-10-17T08:57:11;11.53;;;4.40;;
17987;SDS011;9119;50.932;5.342;2022-10-17T08:59:38;14.77;;;5.87;;
17987;SDS011;9119;50.932;5.342;2022-10-17T09:07:49;12.63;;;5.43;;
17987;SDS011;9119;50.932;5.342;2022-10-17T09:10:27;10.23;;;5.23;;
17987;SDS011;9119;50.932;5.342;2022-10-17T09:13:25;12.07;;;5.50;;
17987;SDS011;9119;50.932;5.342;2022-10-17T09:18:59;11.90;;;3.77;;
17987;SDS011;9119;50.932;5.342;2022-10-17T09:24:03;8.67;;;4.53;;
17987;SDS011;9119;50.932;5.342;2022-10-17T09:26:40;11.77;;;4.30;;
17987;SDS011;9119;50.932;5.342;2022-10-17T09:29:11;12.53;;;4.53;;
17987;SDS011;9119;50.932;5.342;2022-10-17T09:31:44;11.50;;;4.67;;
17987;SDS011;9119;50.932;5.342;2022-10-17T09:34:15;13.90;;;4.73;;
17987;SDS011;9119;50.932;5.342;2022-10-17T09:36:40;20.17;;;8.03;;
17987;SDS011;9119;50.932;5.342;2022-10-17T09:39:15;13.77;;;5.60;;
17987;SDS011;9119;50.932;5.342;2022-10-17T09:41:52;18.93;;;5.40;;
17987;SDS011;9119;50.932;5.342;2022-10-17T09:44:23;10.00;;;4.47;;
17987;SDS011;9119;50.932;5.342;2022-10-17T09:49:25;15.83;;;5.10;;
17987;SDS011;9119;50.932;5.342;2022-10-17T09:51:57;9.03;;;5.00;;
17987;SDS011;9119;50.932;5.342;2022-10-17T09:54:28;10.73;;;5.50;;
17987;SDS011;9119;50.932;5.342;2022-10-17T09:57:09;13.60;;;5.43;;
17987;SDS011;9119;50.932;5.342;2022-10-17T09:59:38;12.23;;;5.50;;
17987;SDS011;9119;50.932;5.342;2022-10-17T10:07:24;9.63;;;5.43;;
17987;SDS011;9119;50.932;5.342;2022-10-17T10:09:54;8.97;;;5.00;;
17987;SDS011;9119;50.932;5.342;2022-10-17T10:12:39;15.87;;;5.93;;
17987;SDS011;9119;50.932;5.342;2022-10-17T10:18:01;10.80;;;5.63;;
17987;SDS011;9119;50.932;5.342;2022-10-17T10:23:15;11.97;;;6.03;;
17987;SDS011;9119;50.932;5.342;2022-10-17T10:25:53;8.27;;;4.80;;
17987;SDS011;9119;50.932;5.342;2022-10-17T10:28:27;11.93;;;6.27;;
17987;SDS011;9119;50.932;5.342;2022-10-17T10:30:56;11.47;;;6.17;;
17987;SDS011;9119;50.932;5.342;2022-10-17T10:33:30;10.27;;;6.90;;
17987;SDS011;9119;50.932;5.342;2022-10-17T10:35:58;12.60;;;5.87;;
17987;SDS011;9119;50.932;5.342;2022-10-17T10:38:26;7.53;;;5.00;;
17987;SDS011;9119;50.932;5.342;2022-10-17T10:40:53;14.63;;;5.90;;
17987;SDS011;9119;50.932;5.342;2022-10-17T10:43:23;14.40;;;5.00;;
17987;SDS011;9119;50.932;5.342;2022-10-17T10:46:25;11.77;;;6.20;;
17987;SDS011;9119;50.932;5.342;2022-10-17T10:48:58;17.80;;;8.20;;
17987;SDS011;9119;50.932;5.342;2022-10-17T10:51:30;12.90;;;6.87;;
17987;SDS011;9119;50.932;5.342;2022-10-17T10:56:45;14.87;;;5.83;;
17987;SDS011;9119;50.932;5.342;2022-10-17T11:02:36;10.93;;;4.97;;
17987;SDS011;9119;50.932;5.342;2022-10-17T11:05:33;8.80;;;4.40;;
17987;SDS011;9119;50.932;5.342;2022-10-17T11:13:42;11.00;;;5.03;;
17987;SDS011;9119;50.932;5.342;2022-10-17T11:18:58;7.40;;;4.37;;
17987;SDS011;9119;50.932;5.342;2022-10-17T11:26:31;15.10;;;4.53;;
17987;SDS011;9119;50.932;5.342;2022-10-17T11:29:01;13.13;;;4.50;;
17987;SDS011;9119;50.932;5.342;2022-10-17T11:31:33;14.23;;;5.20;;
17987;SDS011;9119;50.932;5.342;2022-10-17T11:34:26;8.73;;;4.27;;
17987;SDS011;9119;50.932;5.342;2022-10-17T11:37:01;12.77;;;4.63;;
17987;SDS011;9119;50.932;5.342;2022-10-17T11:42:40;11.07;;;4.90;;
17987;SDS011;9119;50.932;5.342;2022-10-17T11:45:39;9.97;;;4.50;;
17987;SDS011;9119;50.932;5.342;2022-10-17T11:48:11;13.87;;;4.20;;
17987;SDS011;9119;50.932;5.342;2022-10-17T11:50:46;7.77;;;4.00;;
17987;SDS011;9119;50.932;5.342;2022-10-17T11:53:23;10.90;;;4.00;;
17987;SDS011;9119;50.932;5.342;2022-10-17T11:55:51;7.03;;;3.73;;
17987;SDS011;9119;50.932;5.342;2022-10-17T11:58:35;11.00;;;3.70;;
17987;SDS011;9119;50.932;5.342;2022-10-17T12:01:34;12.73;;;4.00;;
17987;SDS011;9119;50.932;5.342;2022-10-17T12:04:26;11.23;;;4.03;;
17987;SDS011;9119;50.932;5.342;2022-10-17T12:09:58;16.93;;;4.57;;
17987;SDS011;9119;50.932;5.342;2022-10-17T12:12:42;8.93;;;4.10;;
17987;SDS011;9119;50.932;5.342;2022-10-17T12:17:54;10.63;;;3.93;;
17987;SDS011;9119;50.932;5.342;2022-10-17T12:22:54;10.47;;;4.33;;
17987;SDS011;9119;50.932;5.342;2022-10-17T12:25:36;10.43;;;4.10;;
17987;SDS011;9119;50.932;5.342;2022-10-17T12:30:53;15.37;;;4.90;;
17987;SDS011;9119;50.932;5.342;2022-10-17T12:33:30;11.17;;;4.13;;
17987;SDS011;9119;50.932;5.342;2022-10-17T12:38:46;10.83;;;4.13;;
17987;SDS011;9119;50.932;5.342;2022-10-17T13:02:51;29.73;;;13.03;;
17987;SDS011;9119;50.932;5.342;2022-10-17T13:05:35;15.93;;;9.23;;
17987;SDS011;9119;50.932;5.342;2022-10-17T13:08:04;13.67;;;5.90;;
17987;SDS011;9119;50.932;5.342;2022-10-17T13:10:36;15.50;;;8.03;;
17987;SDS011;9119;50.932;5.342;2022-10-17T13:13:05;16.37;;;6.37;;
17987;SDS011;9119;50.932;5.342;2022-10-17T13:15:49;13.27;;;6.23;;
17987;SDS011;9119;50.932;5.342;2022-10-17T13:18:22;12.83;;;4.93;;
17987;SDS011;9119;50.932;5.342;2022-10-17T13:23:24;13.90;;;5.80;;
17987;SDS011;9119;50.932;5.342;2022-10-17T13:28:41;13.10;;;5.87;;
17987;SDS011;9119;50.932;5.342;2022-10-17T13:31:23;17.07;;;5.63;;
17987;SDS011;9119;50.932;5.342;2022-10-17T13:33:59;11.27;;;5.50;;
17987;SDS011;9119;50.932;5.342;2022-10-17T13:36:27;12.60;;;5.70;;
17987;SDS011;9119;50.932;5.342;2022-10-17T13:38:54;12.90;;;6.93;;
17987;SDS011;9119;50.932;5.342;2022-10-17T13:41:24;13.10;;;6.40;;
17987;SDS011;9119;50.932;5.342;2022-10-17T13:43:52;12.80;;;6.53;;
17987;SDS011;9119;50.932;5.342;2022-10-17T13:46:23;21.17;;;9.63;;
17987;SDS011;9119;50.932;5.342;2022-10-17T13:48:57;15.37;;;6.67;;
17987;SDS011;9119;50.932;5.342;2022-10-17T13:51:25;19.33;;;9.20;;
17987;SDS011;9119;50.932;5.342;2022-10-17T13:53:51;25.20;;;9.77;;
17987;SDS011;9119;50.932;5.342;2022-10-17T13:56:19;11.30;;;6.20;;
17987;SDS011;9119;50.932;5.342;2022-10-17T13:59:02;15.10;;;8.10;;
17987;SDS011;9119;50.932;5.342;2022-10-17T14:01:43;27.43;;;11.83;;
17987;SDS011;9119;50.932;5.342;2022-10-17T14:04:13;21.37;;;7.30;;
17987;SDS011;9119;50.932;5.342;2022-10-17T14:06:43;14.73;;;7.63;;
17987;SDS011;9119;50.932;5.342;2022-10-17T14:09:21;21.13;;;9.00;;
17987;SDS011;9119;50.932;5.342;2022-10-17T14:11:57;23.77;;;13.70;;
17987;SDS011;9119;50.932;5.342;2022-10-17T14:14:25;22.23;;;10.57;;
17987;SDS011;9119;50.932;5.342;2022-10-17T14:16:53;26.10;;;9.77;;
17987;SDS011;9119;50.932;5.342;2022-10-17T14:19:29;16.53;;;8.23;;
17987;SDS011;9119;50.932;5.342;2022-10-17T14:22:16;13.00;;;7.70;;
17987;SDS011;9119;50.932;5.342;2022-10-17T14:24:49;17.33;;;8.40;;
17987;SDS011;9119;50.932;5.342;2022-10-17T14:32:52;15.20;;;8.33;;
17987;SDS011;9119;50.932;5.342;2022-10-17T14:35:21;17.63;;;9.00;;
17987;SDS011;9119;50.932;5.342;2022-10-17T14:37:48;17.13;;;8.47;;
17987;SDS011;9119;50.932;5.342;2022-10-17T14:40:17;16.03;;;8.70;;
17987;SDS011;9119;50.932;5.342;2022-10-17T14:42:44;15.90;;;8.43;;
17987;SDS011;9119;50.932;5.342;2022-10-17T14:45:13;15.00;;;7.37;;
17987;SDS011;9119;50.932;5.342;2022-10-17T14:47:41;17.47;;;7.73;;
17987;SDS011;9119;50.932;5.342;2022-10-17T14:50:19;19.33;;;8.60;;
17987;SDS011;9119;50.932;5.342;2022-10-17T14:55:36;13.73;;;6.17;;
17987;SDS011;9119;50.932;5.342;2022-10-17T14:58:14;15.20;;;6.83;;
17987;SDS011;9119;50.932;5.342;2022-10-17T15:00:41;12.30;;;6.80;;
17987;SDS011;9119;50.932;5.342;2022-10-17T15:03:06;14.33;;;6.83;;
17987;SDS011;9119;50.932;5.342;2022-10-17T15:05:33;18.07;;;7.43;;
17987;SDS011;9119;50.932;5.342;2022-10-17T15:07:59;13.17;;;6.47;;
17987;SDS011;9119;50.932;5.342;2022-10-17T15:13:02;12.60;;;6.67;;
17987;SDS011;9119;50.932;5.342;2022-10-17T15:15:28;13.80;;;6.50;;
17987;SDS011;9119;50.932;5.342;2022-10-17T15:17:55;15.30;;;7.13;;
17987;SDS011;9119;50.932;5.342;2022-10-17T15:20:21;13.10;;;7.03;;
17987;SDS011;9119;50.932;5.342;2022-10-17T15:22:50;14.23;;;6.50;;
17987;SDS011;9119;50.932;5.342;2022-10-17T15:25:17;18.57;;;7.50;;
17987;SDS011;9119;50.932;5.342;2022-10-17T15:27:43;20.23;;;8.07;;
17987;SDS011;9119;50.932;5.342;2022-10-17T15:30:18;18.37;;;7.97;;
17987;SDS011;9119;50.932;5.342;2022-10-17T15:32:48;16.37;;;7.83;;
17987;SDS011;9119;50.932;5.342;2022-10-17T15:35:14;32.43;;;19.00;;
17987;SDS011;9119;50.932;5.342;2022-10-17T15:37:41;14.30;;;8.00;;
17987;SDS011;9119;50.932;5.342;2022-10-17T15:40:09;14.70;;;7.87;;
17987;SDS011;9119;50.932;5.342;2022-10-17T15:42:39;15.87;;;6.90;;
17987;SDS011;9119;50.932;5.342;2022-10-17T15:45:05;13.27;;;7.80;;
17987;SDS011;9119;50.932;5.342;2022-10-17T15:47:32;10.50;;;6.33;;
17987;SDS011;9119;50.932;5.342;2022-10-17T15:49:58;15.03;;;7.63;;
17987;SDS011;9119;50.932;5.342;2022-10-17T15:52:25;17.67;;;7.00;;
17987;SDS011;9119;50.932;5.342;2022-10-17T15:54:51;13.13;;;5.50;;
17987;SDS011;9119;50.932;5.342;2022-10-17T15:57:19;12.63;;;5.53;;
17987;SDS011;9119;50.932;5.342;2022-10-17T15:59:48;10.87;;;5.37;;
17987;SDS011;9119;50.932;5.342;2022-10-17T16:02:19;9.33;;;5.80;;
17987;SDS011;9119;50.932;5.342;2022-10-17T16:04:47;11.00;;;5.30;;
17987;SDS011;9119;50.932;5.342;2022-10-17T16:07:20;12.53;;;6.47;;
17987;SDS011;9119;50.932;5.342;2022-10-17T16:09:45;16.47;;;5.60;;
17987;SDS011;9119;50.932;5.342;2022-10-17T16:12:19;9.87;;;5.87;;
17987;SDS011;9119;50.932;5.342;2022-10-17T16:14:49;10.77;;;4.90;;
17987;SDS011;9119;50.932;5.342;2022-10-17T16:17:15;8.30;;;5.13;;
17987;SDS011;9119;50.932;5.342;2022-10-17T16:19:41;11.30;;;4.80;;
17987;SDS011;9119;50.932;5.342;2022-10-17T16:22:23;13.63;;;5.90;;
17987;SDS011;9119;50.932;5.342;2022-10-17T16:24:55;10.43;;;5.73;;
17987;SDS011;9119;50.932;5.342;2022-10-17T16:27:23;8.27;;;4.53;;
17987;SDS011;9119;50.932;5.342;2022-10-17T16:29:50;9.33;;;5.07;;
17987;SDS011;9119;50.932;5.342;2022-10-17T16:32:15;11.50;;;5.20;;
17987;SDS011;9119;50.932;5.342;2022-10-17T16:34:41;8.23;;;5.03;;
17987;SDS011;9119;50.932;5.342;2022-10-17T16:37:06;15.00;;;5.50;;
17987;SDS011;9119;50.932;5.342;2022-10-17T16:39:33;8.53;;;5.30;;
17987;SDS011;9119;50.932;5.342;2022-10-17T16:41:58;11.33;;;5.23;;
17987;SDS011;9119;50.932;5.342;2022-10-17T16:44:24;9.87;;;4.83;;
17987;SDS011;9119;50.932;5.342;2022-10-17T16:46:52;8.73;;;4.47;;
17987;SDS011;9119;50.932;5.342;2022-10-17T16:49:18;10.90;;;4.57;;
17987;SDS011;9119;50.932;5.342;2022-10-17T16:51:44;10.47;;;3.80;;
17987;SDS011;9119;50.932;5.342;2022-10-17T16:54:09;7.27;;;3.80;;
17987;SDS011;9119;50.932;5.342;2022-10-17T16:56:38;9.80;;;4.37;;
17987;SDS011;9119;50.932;5.342;2022-10-17T16:59:07;12.20;;;4.10;;
17987;SDS011;9119;50.932;5.342;2022-10-17T17:01:34;5.47;;;3.93;;
17987;SDS011;9119;50.932;5.342;2022-10-17T17:04:01;8.83;;;3.70;;
17987;SDS011;9119;50.932;5.342;2022-10-17T17:06:28;7.40;;;3.53;;
17987;SDS011;9119;50.932;5.342;2022-10-17T17:08:54;8.67;;;3.50;;
17987;SDS011;9119;50.932;5.342;2022-10-17T17:11:21;9.57;;;3.30;;